Time;durP1;ratioP1;P1;durP2;ratioP2;P2;SDS_P1;SDS_P2;PMS_P1;PMS_P2;Temp;Humidity;BMP_temperature;BMP_pressure;BME280_temperature;BME280_humidity;BME280_pressure;Samples;Min_cycle;Max_cycle;Signal;HPM_P1;HPM_P2
2024/01/09 00:00:42;;;;;;;9.40;5.63;;;-2.60;99.90;;;;;;5050217;28;20390;-81
2024/01/09 00:03:08;;;;;;;10.37;5.87;;;-2.70;99.90;;;;;;5042955;28;20304;-77
2024/01/09 00:05:34;;;;;;;6.97;5.47;;;-2.60;99.90;;;;;;5045536;28;20055;-80
2024/01/09 00:07:59;;;;;;;9.10;5.93;;;-2.60;99.90;;;;;;5047229;28;20037;-80
2024/01/09 00:10:26;;;;;;;9.00;5.53;;;-2.60;99.90;;;;;;5045204;28;20079;-79
2024/01/09 00:12:52;;;;;;;8.23;5.57;;;-2.60;99.90;;;;;;5056773;28;20075;-80
2024/01/09 00:15:18;;;;;;;8.50;5.50;;;-2.60;99.90;;;;;;5049773;28;20694;-79
2024/01/09 00:17:43;;;;;;;8.57;5.73;;;-2.60;99.90;;;;;;5053968;28;20045;-79
2024/01/09 00:20:10;;;;;;;7.97;5.20;;;-2.60;99.90;;;;;;5045185;28;20072;-79
2024/01/09 00:22:36;;;;;;;8.67;5.60;;;-2.70;99.90;;;;;;5053055;28;20041;-80
2024/01/09 00:25:01;;;;;;;8.53;5.57;;;-2.60;99.90;;;;;;5048590;28;20345;-80
2024/01/09 00:27:27;;;;;;;7.93;5.43;;;-2.60;99.90;;;;;;5063607;28;20076;-80
2024/01/09 00:29:53;;;;;;;7.97;5.53;;;-2.60;99.90;;;;;;5049239;28;20045;-81
2024/01/09 00:32:18;;;;;;;8.27;5.73;;;-2.60;99.90;;;;;;5053171;28;20458;-79
2024/01/09 00:34:44;;;;;;;9.30;5.27;;;-2.70;99.90;;;;;;5031896;28;20048;-81
2024/01/09 00:37:11;;;;;;;10.37;6.13;;;-2.60;99.90;;;;;;5047794;28;20194;-80
2024/01/09 00:39:36;;;;;;;10.60;5.50;;;-2.70;99.90;;;;;;5047672;28;20056;-80
2024/01/09 00:42:02;;;;;;;8.80;5.60;;;-2.70;99.90;;;;;;5049747;28;20329;-79
2024/01/09 00:44:28;;;;;;;7.63;5.37;;;-2.70;99.90;;;;;;5048253;28;20047;-80
2024/01/09 00:46:54;;;;;;;7.97;5.40;;;-2.80;99.90;;;;;;5048115;28;20041;-80
2024/01/09 00:49:19;;;;;;;8.83;5.40;;;-2.80;99.90;;;;;;5045343;28;20104;-80
2024/01/09 00:51:46;;;;;;;9.53;5.47;;;-2.70;99.90;;;;;;5048191;28;20044;-80
2024/01/09 00:54:11;;;;;;;8.10;5.37;;;-2.80;99.90;;;;;;5051742;28;20048;-80
2024/01/09 00:56:37;;;;;;;11.87;5.40;;;-2.80;99.90;;;;;;5047514;28;20295;-80
2024/01/09 00:59:03;;;;;;;9.63;5.83;;;-2.80;99.90;;;;;;5028560;28;20132;-80
2024/01/09 01:01:28;;;;;;;7.67;5.63;;;-2.70;99.90;;;;;;5053169;28;20056;-80
2024/01/09 01:03:54;;;;;;;6.50;4.73;;;-2.70;99.90;;;;;;5048464;28;20045;-80
2024/01/09 01:06:19;;;;;;;7.83;5.47;;;-2.70;99.90;;;;;;5051260;28;20072;-79
2024/01/09 01:08:45;;;;;;;8.33;5.30;;;-2.70;99.90;;;;;;5050440;28;20040;-80
2024/01/09 01:11:11;;;;;;;9.30;5.87;;;-2.80;99.90;;;;;;5047159;28;20037;-80
2024/01/09 01:13:36;;;;;;;10.60;5.03;;;-2.80;99.90;;;;;;5053001;28;20726;-80
2024/01/09 01:16:02;;;;;;;9.37;4.87;;;-2.80;99.90;;;;;;5047047;28;20606;-79
2024/01/09 01:18:28;;;;;;;8.90;5.03;;;-2.80;99.90;;;;;;5050529;28;20072;-81
2024/01/09 01:20:53;;;;;;;8.43;5.30;;;-2.80;99.90;;;;;;5045830;28;20168;-80
2024/01/09 01:23:19;;;;;;;7.03;5.40;;;-2.80;99.90;;;;;;5047551;28;20041;-80
2024/01/09 01:25:45;;;;;;;6.50;4.80;;;-2.90;99.90;;;;;;5046373;28;20052;-80
2024/01/09 01:28:10;;;;;;;9.43;5.30;;;-2.90;99.90;;;;;;5043819;28;20511;-80
2024/01/09 01:30:36;;;;;;;7.93;4.93;;;-2.80;99.90;;;;;;5050149;28;20041;-79
2024/01/09 01:33:03;;;;;;;10.67;5.10;;;-2.80;99.90;;;;;;5043646;28;20064;-80
2024/01/09 01:35:28;;;;;;;9.37;5.70;;;-2.80;99.90;;;;;;5046630;28;20128;-80
2024/01/09 01:37:54;;;;;;;7.87;4.80;;;-2.80;99.90;;;;;;5045796;28;20331;-80
2024/01/09 01:40:20;;;;;;;7.90;5.83;;;-2.80;99.90;;;;;;5047287;28;20586;-80
2024/01/09 01:42:45;;;;;;;8.93;5.37;;;-2.90;99.90;;;;;;5034187;28;20047;-80
2024/01/09 01:45:16;;;;;;;9.73;5.73;;;-2.90;99.90;;;;;;5042399;28;20033;-79
2024/01/09 01:47:46;;;;;;;8.00;5.73;;;-2.90;99.90;;;;;;5049599;28;20037;-81
2024/01/09 01:50:13;;;;;;;9.13;5.90;;;-2.90;99.90;;;;;;5048615;28;20282;-80
2024/01/09 01:52:40;;;;;;;8.10;5.30;;;-2.90;99.90;;;;;;5046240;28;20288;-79
2024/01/09 01:55:09;;;;;;;8.93;5.77;;;-3.00;99.90;;;;;;5046407;28;20383;-80
2024/01/09 01:57:35;;;;;;;9.33;5.43;;;-3.00;99.90;;;;;;5049610;28;20280;-80
2024/01/09 02:00:02;;;;;;;9.63;6.37;;;-3.00;99.90;;;;;;5054348;28;20311;-80
2024/01/09 02:02:29;;;;;;;7.93;5.73;;;-3.00;99.90;;;;;;5046593;28;20705;-80
2024/01/09 02:04:55;;;;;;;10.20;5.50;;;-2.90;99.90;;;;;;5051475;28;20291;-80
2024/01/09 02:07:25;;;;;;;12.40;5.77;;;-3.00;99.90;;;;;;5054285;28;20284;-81
2024/01/09 02:09:53;;;;;;;8.57;5.77;;;-3.00;99.90;;;;;;5049811;28;20881;-80
2024/01/09 02:12:19;;;;;;;10.60;5.57;;;-3.00;99.90;;;;;;5051295;28;20287;-80
2024/01/09 02:14:46;;;;;;;10.57;6.30;;;-3.00;99.90;;;;;;5054844;28;20288;-80
2024/01/09 02:17:13;;;;;;;9.27;5.67;;;-3.10;99.90;;;;;;5053243;28;20727;-80
2024/01/09 02:19:39;;;;;;;11.87;6.57;;;-3.10;99.90;;;;;;5050694;28;20579;-80
2024/01/09 02:22:05;;;;;;;9.50;5.90;;;-3.20;99.90;;;;;;5050922;28;20621;-79
2024/01/09 02:24:30;;;;;;;9.27;6.03;;;-3.20;99.90;;;;;;5053004;28;20048;-80
2024/01/09 02:27:08;;;;;;;9.97;6.33;;;-3.20;99.90;;;;;;5048939;28;20534;-80
2024/01/09 02:29:37;;;;;;;10.33;5.90;;;-3.20;99.90;;;;;;5057123;28;20095;-79
2024/01/09 02:32:04;;;;;;;7.83;5.57;;;-3.20;99.90;;;;;;5051370;28;20353;-79
2024/01/09 02:34:32;;;;;;;7.30;5.67;;;-3.30;99.90;;;;;;5050213;28;20284;-81
2024/01/09 02:36:57;;;;;;;12.30;5.50;;;-3.20;99.90;;;;;;5047920;28;20285;-80
2024/01/09 02:39:26;;;;;;;7.80;5.57;;;-3.20;99.90;;;;;;5055541;28;20339;-80
2024/01/09 02:41:52;;;;;;;11.43;5.87;;;-3.30;99.90;;;;;;5050393;28;20060;-79
2024/01/09 02:44:18;;;;;;;10.27;5.37;;;-3.30;99.90;;;;;;5054411;28;20295;-79
2024/01/09 02:46:44;;;;;;;8.23;5.40;;;-3.30;99.90;;;;;;5044826;28;20044;-80
2024/01/09 02:49:11;;;;;;;9.33;5.50;;;-3.30;99.90;;;;;;5052826;28;20287;-80
2024/01/09 02:51:37;;;;;;;8.13;5.53;;;-3.30;99.90;;;;;;5050374;28;20287;-80
2024/01/09 02:54:02;;;;;;;9.80;5.50;;;-3.30;99.90;;;;;;5049118;28;20348;-80
2024/01/09 02:56:29;;;;;;;9.17;5.97;;;-3.30;99.90;;;;;;5049163;28;20037;-80
2024/01/09 02:58:54;;;;;;;7.97;5.53;;;-3.40;99.90;;;;;;5046227;28;20045;-80
2024/01/09 03:01:23;;;;;;;10.50;5.80;;;-3.30;99.90;;;;;;5048148;28;20355;-80
2024/01/09 03:03:48;;;;;;;9.70;5.80;;;-3.40;99.90;;;;;;5052261;28;20063;-80
2024/01/09 03:06:14;;;;;;;8.23;5.83;;;-3.40;99.90;;;;;;5051629;28;20295;-80
2024/01/09 03:08:40;;;;;;;10.67;5.47;;;-3.40;99.90;;;;;;5047631;28;20045;-80
2024/01/09 03:11:05;;;;;;;10.23;5.67;;;-3.40;99.90;;;;;;5033021;28;20044;-80
2024/01/09 03:13:31;;;;;;;11.10;5.97;;;-3.40;99.90;;;;;;5048743;28;20108;-79
2024/01/09 03:15:57;;;;;;;10.30;5.83;;;-3.50;99.90;;;;;;5036552;28;20467;-79
2024/01/09 03:18:22;;;;;;;8.23;5.50;;;-3.50;99.90;;;;;;5050603;28;20072;-80
2024/01/09 03:20:48;;;;;;;8.77;5.13;;;-3.50;99.90;;;;;;5048382;28;20073;-80
2024/01/09 03:23:13;;;;;;;9.77;5.83;;;-3.50;99.90;;;;;;5066637;28;20041;-79
2024/01/09 03:25:39;;;;;;;10.10;5.70;;;-3.50;99.90;;;;;;5038346;28;20037;-80
2024/01/09 03:28:05;;;;;;;7.93;5.13;;;-3.60;99.90;;;;;;5050760;28;20509;-80
2024/01/09 03:30:31;;;;;;;8.20;5.70;;;-3.60;99.90;;;;;;5055463;28;20239;-80
2024/01/09 03:32:56;;;;;;;9.47;5.70;;;-3.60;99.90;;;;;;5047708;28;20045;-81
2024/01/09 03:35:23;;;;;;;6.13;5.03;;;-3.60;99.90;;;;;;5051329;28;20045;-80
2024/01/09 03:37:48;;;;;;;9.23;5.30;;;-3.60;99.90;;;;;;5049533;28;20048;-81
2024/01/09 03:40:14;;;;;;;8.93;5.00;;;-3.70;99.90;;;;;;5049990;28;20306;-80
2024/01/09 03:42:40;;;;;;;9.10;5.53;;;-3.60;99.90;;;;;;5052536;28;20877;-80
2024/01/09 03:45:07;;;;;;;6.50;5.07;;;-3.60;99.90;;;;;;5048786;28;20052;-80
2024/01/09 03:47:33;;;;;;;7.70;4.83;;;-3.60;99.90;;;;;;5052519;28;20127;-80
2024/01/09 03:49:58;;;;;;;7.50;5.00;;;-3.70;99.90;;;;;;5051851;28;20366;-79
2024/01/09 03:52:25;;;;;;;7.73;4.80;;;-3.70;99.90;;;;;;5047768;28;20041;-80
2024/01/09 03:54:50;;;;;;;8.27;5.17;;;-3.70;99.90;;;;;;5049904;28;20087;-80
2024/01/09 03:57:16;;;;;;;7.40;4.97;;;-3.70;99.90;;;;;;5048209;28;20280;-80
2024/01/09 03:59:42;;;;;;;8.67;5.00;;;-3.70;99.90;;;;;;5047636;28;20056;-79
2024/01/09 04:02:07;;;;;;;7.80;4.60;;;-3.70;99.90;;;;;;5047065;28;20049;-80
2024/01/09 04:04:33;;;;;;;9.57;5.20;;;-3.70;99.90;;;;;;5048228;28;20423;-80
2024/01/09 04:06:59;;;;;;;7.97;4.80;;;-3.70;99.90;;;;;;5043658;28;20041;-80
2024/01/09 04:09:25;;;;;;;8.17;5.43;;;-3.70;99.90;;;;;;5050637;28;20052;-80
2024/01/09 04:11:50;;;;;;;7.93;4.97;;;-3.70;99.90;;;;;;5047874;28;20049;-80
2024/01/09 04:14:16;;;;;;;8.93;5.47;;;-3.70;99.90;;;;;;5048624;28;20056;-78
2024/01/09 04:16:48;;;;;;;7.80;5.33;;;-3.70;99.90;;;;;;5054584;28;20052;-77
2024/01/09 04:19:14;;;;;;;;;;;-3.80;99.90;;;;;;5048763;28;20048;-81
2024/01/09 04:21:40;;;;;;;9.83;5.07;;;-3.80;99.90;;;;;;5047492;28;19960;-80
2024/01/09 04:24:05;;;;;;;10.00;5.57;;;-3.70;99.90;;;;;;5030443;28;20224;-80
2024/01/09 04:26:31;;;;;;;8.33;5.60;;;-3.80;99.90;;;;;;5048317;28;20356;-80
2024/01/09 04:28:57;;;;;;;8.20;5.47;;;-3.80;99.90;;;;;;5049847;28;20435;-80
2024/01/09 04:31:25;;;;;;;9.00;5.07;;;-3.80;99.90;;;;;;5034894;28;20612;-80
2024/01/09 04:33:51;;;;;;;8.93;5.30;;;-3.80;99.90;;;;;;5050439;28;20041;-80
2024/01/09 04:36:17;;;;;;;7.93;4.53;;;-3.80;99.90;;;;;;5048434;28;20300;-81
2024/01/09 04:38:45;;;;;;;8.37;5.20;;;-3.90;99.90;;;;;;5044515;28;20070;-80
2024/01/09 04:41:17;;;;;;;9.17;5.50;;;-4.00;99.90;;;;;;5050255;28;20331;-80
2024/01/09 04:43:47;;;;;;;7.97;5.38;;;-4.00;99.90;;;;;;5046857;28;20304;-80
2024/01/09 04:46:13;;;;;;;7.13;5.03;;;-4.00;99.90;;;;;;5043852;28;20045;-80
2024/01/09 04:48:39;;;;;;;7.97;5.07;;;-3.90;99.90;;;;;;5048521;28;20288;-80
2024/01/09 04:51:05;;;;;;;10.77;5.10;;;-4.00;99.90;;;;;;5045868;28;20288;-79
2024/01/09 04:53:31;;;;;;;6.73;4.93;;;-4.00;99.90;;;;;;5045114;28;20045;-80
2024/01/09 04:55:56;;;;;;;9.50;5.20;;;-4.00;99.90;;;;;;5054398;28;20613;-79
2024/01/09 04:58:22;;;;;;;8.30;4.70;;;-4.00;99.90;;;;;;5046989;28;20041;-79
2024/01/09 05:00:48;;;;;;;7.37;5.00;;;-4.00;99.90;;;;;;5050475;28;20113;-79
2024/01/09 05:03:14;;;;;;;7.37;4.97;;;-4.00;99.90;;;;;;5047269;28;20371;-79
2024/01/09 05:05:39;;;;;;;8.67;5.27;;;-4.00;99.90;;;;;;5044828;28;20045;-79
2024/01/09 05:08:05;;;;;;;7.20;4.60;;;-4.00;99.90;;;;;;5050046;28;20040;-80
2024/01/09 05:10:31;;;;;;;8.70;4.70;;;-4.00;99.90;;;;;;5048038;28;20075;-79
2024/01/09 05:13:00;;;;;;;8.87;5.20;;;-4.10;99.90;;;;;;5044269;28;20143;-79
2024/01/09 05:15:25;;;;;;;5.37;4.43;;;-4.10;99.90;;;;;;5048853;28;20047;-80
2024/01/09 05:17:51;;;;;;;7.57;5.40;;;-4.10;99.90;;;;;;5051426;28;20379;-79
2024/01/09 05:20:17;;;;;;;9.60;5.43;;;-4.00;99.90;;;;;;5048681;28;20045;-80
2024/01/09 05:22:42;;;;;;;7.93;4.87;;;-4.00;99.90;;;;;;5049360;28;20041;-79
2024/01/09 05:25:08;;;;;;;8.73;5.03;;;-4.10;99.90;;;;;;5064914;28;20563;-79
2024/01/09 05:27:34;;;;;;;8.30;5.13;;;-4.10;99.90;;;;;;5053104;28;20668;-79
2024/01/09 05:30:00;;;;;;;10.07;5.77;;;-4.10;99.90;;;;;;5027404;28;20151;-79
2024/01/09 05:32:26;;;;;;;8.47;5.00;;;-4.10;99.90;;;;;;5046225;28;20319;-80
2024/01/09 05:34:52;;;;;;;6.37;4.40;;;-4.20;99.90;;;;;;5038722;28;20033;-80
2024/01/09 05:37:18;;;;;;;9.57;4.63;;;-4.20;99.90;;;;;;5046705;28;20053;-80
2024/01/09 05:39:45;;;;;;;6.70;4.67;;;-4.20;99.90;;;;;;5050677;28;20306;-80
2024/01/09 05:42:11;;;;;;;7.97;5.00;;;-4.10;99.90;;;;;;5046543;28;20081;-80
2024/01/09 05:44:37;;;;;;;8.80;5.07;;;-4.10;99.90;;;;;;5049750;28;20314;-81
2024/01/09 05:47:03;;;;;;;7.00;4.63;;;-4.20;99.90;;;;;;5043965;28;20287;-80
2024/01/09 05:49:29;;;;;;;8.40;4.90;;;-4.20;99.90;;;;;;5047002;28;20065;-79
2024/01/09 05:51:55;;;;;;;8.83;5.10;;;-4.30;99.90;;;;;;5051187;28;20288;-86
2024/01/09 05:54:21;;;;;;;8.50;5.13;;;-4.30;99.90;;;;;;5054711;28;20044;-79
2024/01/09 05:56:46;;;;;;;6.30;4.60;;;-4.20;99.90;;;;;;5049060;28;20124;-79
2024/01/09 05:59:12;;;;;;;8.70;5.00;;;-4.30;99.90;;;;;;5052446;28;20136;-81
2024/01/09 06:01:38;;;;;;;8.90;5.17;;;-4.20;99.90;;;;;;5063017;28;20029;-88
2024/01/09 06:04:04;;;;;;;7.37;5.03;;;-4.20;99.90;;;;;;5056272;28;20104;-81
2024/01/09 06:06:30;;;;;;;7.20;4.90;;;-4.30;99.90;;;;;;5056026;28;20133;-82
2024/01/09 06:08:56;;;;;;;7.57;5.20;;;-4.40;99.90;;;;;;5040926;28;20051;-82
2024/01/09 06:11:21;;;;;;;9.50;5.10;;;-4.30;99.90;;;;;;5051354;28;20410;-79
2024/01/09 06:13:47;;;;;;;7.63;4.70;;;-4.40;99.90;;;;;;5049075;28;20079;-79
2024/01/09 06:16:13;;;;;;;5.70;4.17;;;-4.40;99.90;;;;;;5049396;28;20493;-80
2024/01/09 06:18:40;;;;;;;8.10;5.17;;;-4.40;99.90;;;;;;5060215;28;20040;-80
2024/01/09 06:21:05;;;;;;;7.13;4.73;;;-4.40;99.90;;;;;;5071370;28;20569;-80
2024/01/09 06:23:31;;;;;;;7.20;4.60;;;-4.40;99.90;;;;;;5058496;28;20371;-80
2024/01/09 06:25:57;;;;;;;9.07;5.23;;;-4.40;99.90;;;;;;5062144;28;20487;-79
2024/01/09 06:28:23;;;;;;;10.67;5.43;;;-4.40;99.90;;;;;;5044500;28;20048;-79
2024/01/09 06:30:49;;;;;;;8.47;4.77;;;-4.40;99.90;;;;;;5041594;28;20482;-80
2024/01/09 06:33:15;;;;;;;7.70;5.07;;;-4.40;99.90;;;;;;5038887;28;20663;-80
2024/01/09 06:35:41;;;;;;;7.30;5.20;;;-4.40;99.90;;;;;;5039916;28;20275;-80
2024/01/09 06:38:08;;;;;;;7.53;4.37;;;-4.40;99.90;;;;;;5042261;28;20062;-79
2024/01/09 06:40:33;;;;;;;9.10;5.30;;;-4.40;99.90;;;;;;5039829;28;20064;-79
2024/01/09 06:42:59;;;;;;;8.57;5.00;;;-4.50;99.90;;;;;;5039828;28;20304;-79
2024/01/09 06:45:25;;;;;;;10.40;5.27;;;-4.50;99.90;;;;;;5044100;28;20041;-80
2024/01/09 06:47:50;;;;;;;8.20;4.67;;;-4.50;99.90;;;;;;5046159;28;20710;-79
2024/01/09 06:50:16;;;;;;;6.97;4.80;;;-4.50;99.90;;;;;;5045224;28;20061;-80
2024/01/09 06:52:42;;;;;;;8.17;5.17;;;-4.50;99.90;;;;;;5046286;28;20061;-79
2024/01/09 06:55:08;;;;;;;7.57;4.60;;;-4.50;99.90;;;;;;5044540;28;20485;-79
2024/01/09 06:57:33;;;;;;;7.00;4.70;;;-4.50;99.90;;;;;;5044264;28;20045;-75
2024/01/09 06:59:59;;;;;;;8.37;4.73;;;-4.50;99.90;;;;;;5044581;28;20048;-79
2024/01/09 07:02:25;;;;;;;6.37;4.40;;;-4.50;99.90;;;;;;5046265;28;20124;-79
2024/01/09 07:04:51;;;;;;;7.77;5.03;;;-4.60;99.90;;;;;;5052692;28;20634;-80
2024/01/09 07:07:16;;;;;;;8.30;4.70;;;-4.50;99.90;;;;;;5060927;28;20509;-79
2024/01/09 07:09:42;;;;;;;7.97;5.20;;;-4.50;99.90;;;;;;5063273;28;20040;-78
2024/01/09 07:12:09;;;;;;;8.50;5.13;;;-4.50;99.90;;;;;;5066920;28;20064;-78
2024/01/09 07:14:36;;;;;;;10.20;5.10;;;-4.50;99.90;;;;;;5062850;28;20404;-80
2024/01/09 07:17:03;;;;;;;9.33;5.17;;;-4.50;99.90;;;;;;5063527;28;20267;-78
2024/01/09 07:19:30;;;;;;;7.90;5.00;;;-4.50;99.90;;;;;;5059678;28;20700;-79
2024/01/09 07:21:56;;;;;;;8.70;5.27;;;-4.50;99.90;;;;;;5071367;28;20298;-79
2024/01/09 07:24:22;;;;;;;8.03;5.40;;;-4.50;99.90;;;;;;5066730;28;20287;-79
2024/01/09 07:26:48;;;;;;;7.97;4.47;;;-4.50;99.90;;;;;;5066471;28;20379;-79
2024/01/09 07:29:16;;;;;;;7.33;4.67;;;-4.50;99.90;;;;;;5069340;28;20049;-79
2024/01/09 07:31:48;;;;;;;7.47;4.83;;;-4.60;99.90;;;;;;5062451;28;20421;-78
2024/01/09 07:34:14;;;;;;;7.63;5.03;;;-4.60;99.90;;;;;;5056925;28;20287;-80
2024/01/09 07:36:42;;;;;;;6.93;5.13;;;-4.60;99.90;;;;;;5068992;28;20679;-81
2024/01/09 07:39:09;;;;;;;9.83;5.27;;;-4.60;99.90;;;;;;5060887;28;20376;-79
2024/01/09 07:41:36;;;;;;;8.90;5.33;;;-4.60;99.90;;;;;;5066624;28;20349;-80
2024/01/09 07:44:02;;;;;;;9.57;5.40;;;-4.70;99.90;;;;;;5063785;28;20284;-80
2024/01/09 07:46:29;;;;;;;8.30;5.17;;;-4.70;99.90;;;;;;5058127;28;20319;-78
2024/01/09 07:48:54;;;;;;;8.40;5.40;;;-4.70;99.90;;;;;;5063720;28;20292;-80
2024/01/09 07:51:20;;;;;;;8.67;4.80;;;-4.70;99.90;;;;;;5063285;28;20445;-80
2024/01/09 07:53:45;;;;;;;9.37;5.87;;;-4.70;99.90;;;;;;5066632;28;20045;-81
2024/01/09 07:56:18;;;;;;;8.43;5.17;;;-4.60;99.90;;;;;;5059830;28;20132;-80
2024/01/09 07:58:45;;;;;;;7.87;5.33;;;-4.70;99.90;;;;;;5047524;28;20466;-80
2024/01/09 08:01:14;;;;;;;7.87;5.00;;;-4.60;99.90;;;;;;5040522;28;20339;-80
2024/01/09 08:03:40;;;;;;;8.63;5.23;;;-4.60;99.90;;;;;;5039031;28;20329;-81
2024/01/09 08:06:16;;;;;;;8.50;5.17;;;-4.60;99.90;;;;;;5038514;28;20296;-80
2024/01/09 08:08:43;;;;;;;11.60;5.70;;;-4.60;99.90;;;;;;5036427;28;20319;-80
2024/01/09 08:11:10;;;;;;;8.57;5.30;;;-4.60;99.90;;;;;;5041467;28;20275;-81
2024/01/09 08:13:37;;;;;;;10.50;5.77;;;-4.50;99.90;;;;;;5044321;28;20272;-77
2024/01/09 08:16:03;;;;;;;9.03;5.20;;;-4.50;99.90;;;;;;5043754;28;20722;-80
2024/01/09 08:18:29;;;;;;;13.93;5.87;;;-4.50;99.90;;;;;;5049933;28;20338;-80
2024/01/09 08:20:55;;;;;;;8.53;5.70;;;-4.50;99.90;;;;;;5042209;28;20311;-81
2024/01/09 08:23:23;;;;;;;6.37;5.00;;;-4.50;99.90;;;;;;5039598;28;20295;-80
2024/01/09 08:25:49;;;;;;;9.63;5.97;;;-4.50;99.90;;;;;;5041723;28;20691;-81
2024/01/09 08:28:15;;;;;;;9.17;5.73;;;-4.50;99.90;;;;;;5047973;28;20660;-81
2024/01/09 08:30:41;;;;;;;8.53;5.27;;;-4.50;99.90;;;;;;5048037;28;20103;-80
2024/01/09 08:33:07;;;;;;;10.90;5.70;;;-4.50;99.90;;;;;;5052513;28;20056;-80
2024/01/09 08:35:32;;;;;;;8.90;4.90;;;-4.50;99.90;;;;;;5046323;28;20064;-80
2024/01/09 08:37:58;;;;;;;9.03;5.10;;;-4.40;99.90;;;;;;5040466;28;20042;-81
2024/01/09 08:40:24;;;;;;;9.43;5.40;;;-4.40;99.90;;;;;;5044612;28;20072;-80
2024/01/09 08:42:49;;;;;;;8.67;5.40;;;-4.40;99.90;;;;;;5010653;28;20051;-81
2024/01/09 08:45:17;;;;;;;10.23;5.07;;;-4.40;99.90;;;;;;5044909;28;20331;-81
2024/01/09 08:47:43;;;;;;;8.90;5.10;;;-4.30;99.90;;;;;;5047809;28;20049;-81
2024/01/09 08:50:08;;;;;;;7.33;5.27;;;-4.20;99.90;;;;;;5047562;28;20333;-81
2024/01/09 08:52:37;;;;;;;7.83;5.40;;;-4.20;99.90;;;;;;5035701;28;20318;-81
2024/01/09 08:55:04;;;;;;;9.70;6.00;;;-4.20;99.90;;;;;;5044282;28;20045;-81
2024/01/09 08:57:30;;;;;;;8.60;5.23;;;-4.20;99.90;;;;;;5048554;28;20294;-81
2024/01/09 08:59:58;;;;;;;8.60;5.10;;;-4.10;99.90;;;;;;5041918;28;21076;-81
2024/01/09 09:02:24;;;;;;;8.03;5.30;;;-4.00;99.90;;;;;;5043033;28;20041;-81
2024/01/09 09:04:51;;;;;;;8.03;5.13;;;-4.00;99.90;;;;;;5039800;28;20346;-81
2024/01/09 09:07:18;;;;;;;8.33;5.00;;;-3.90;99.90;;;;;;5042735;28;20045;-80
2024/01/09 09:09:44;;;;;;;7.20;4.93;;;-3.90;99.90;;;;;;5046080;28;20292;-80
2024/01/09 09:12:10;;;;;;;7.77;5.10;;;-3.80;99.90;;;;;;5044265;28;20302;-81
2024/01/09 09:14:36;;;;;;;8.90;6.00;;;-3.80;99.90;;;;;;5046945;28;20442;-81
2024/01/09 09:17:02;;;;;;;7.83;5.50;;;-3.80;99.90;;;;;;5037813;28;20298;-80
2024/01/09 09:19:27;;;;;;;10.17;6.23;;;-3.80;99.90;;;;;;5043585;28;20128;-81
2024/01/09 09:21:53;;;;;;;8.73;5.30;;;-3.80;99.90;;;;;;5054740;28;20052;-81
2024/01/09 09:24:19;;;;;;;8.80;5.57;;;-3.70;99.90;;;;;;5041144;28;20614;-81
2024/01/09 09:26:45;;;;;;;10.63;5.03;;;-3.70;99.90;;;;;;5044530;28;20045;-81
2024/01/09 09:29:11;;;;;;;9.23;5.67;;;-3.60;99.90;;;;;;5043553;28;20283;-81
2024/01/09 09:31:36;;;;;;;8.43;5.60;;;-3.50;99.90;;;;;;5042746;28;20732;-81
2024/01/09 09:34:02;;;;;;;6.00;4.90;;;-3.50;99.90;;;;;;5050786;28;20091;-79
2024/01/09 09:36:28;;;;;;;9.87;5.60;;;-3.50;99.90;;;;;;5038666;28;20045;-81
2024/01/09 09:38:53;;;;;;;7.80;5.43;;;-3.50;99.90;;;;;;5044013;28;20144;-80
2024/01/09 09:41:23;;;;;;;7.30;4.90;;;-3.40;99.90;;;;;;5034490;28;20042;-81
2024/01/09 09:43:58;;;;;;;6.90;4.80;;;-3.30;99.90;;;;;;5048495;28;20120;-82
2024/01/09 09:46:30;;;;;;;9.40;5.20;;;-3.30;99.90;;;;;;5044847;28;20271;-81
2024/01/09 09:48:57;;;;;;;7.18;4.90;;;-3.20;99.90;;;;;;5041137;28;20290;-80
2024/01/09 09:51:25;;;;;;;9.07;5.00;;;-3.20;99.90;;;;;;5041189;28;20052;-81
2024/01/09 09:53:53;;;;;;;8.20;4.90;;;-3.00;99.90;;;;;;5031005;28;20288;-81
2024/01/09 09:56:19;;;;;;;6.93;4.63;;;-3.10;99.90;;;;;;5034904;28;20616;-79
2024/01/09 09:58:44;;;;;;;6.53;4.67;;;-3.10;99.90;;;;;;5018115;28;20276;-78
2024/01/09 10:01:13;;;;;;;8.87;5.40;;;-3.00;99.90;;;;;;5021827;28;20311;-79
2024/01/09 10:03:55;;;;;;;7.40;5.60;;;-3.00;99.90;;;;;;5020098;28;20081;-79
2024/01/09 10:06:22;;;;;;;7.10;4.47;;;-3.00;99.90;;;;;;5022928;28;20296;-77
2024/01/09 10:08:50;;;;;;;8.77;5.20;;;-3.00;99.90;;;;;;5022672;28;21329;-78
2024/01/09 10:11:16;;;;;;;7.80;5.50;;;-3.00;99.90;;;;;;5024214;28;20292;-79
2024/01/09 10:13:43;;;;;;;9.20;5.27;;;-2.90;99.90;;;;;;5025021;28;20292;-78
2024/01/09 10:16:09;;;;;;;9.63;5.37;;;-2.90;99.90;;;;;;5021795;28;20042;-79
2024/01/09 10:18:36;;;;;;;9.00;5.00;;;-2.80;99.90;;;;;;5023416;28;20283;-78
2024/01/09 10:21:02;;;;;;;9.23;4.70;;;-2.80;99.90;;;;;;5026537;28;20288;-79
2024/01/09 10:23:29;;;;;;;10.03;5.37;;;-2.70;99.90;;;;;;5027426;28;20280;-79
2024/01/09 10:25:55;;;;;;;9.83;5.77;;;-2.70;99.90;;;;;;5026979;28;20878;-79
2024/01/09 10:28:22;;;;;;;7.87;5.07;;;-2.70;99.90;;;;;;5027482;28;20284;-79
2024/01/09 10:30:52;;;;;;;8.43;5.40;;;-2.60;99.90;;;;;;5027884;28;20311;-79
2024/01/09 10:33:17;;;;;;;9.57;5.30;;;-2.60;99.90;;;;;;5024919;28;20375;-78
2024/01/09 10:35:43;;;;;;;8.87;5.23;;;-2.50;99.90;;;;;;5027706;28;20303;-79
2024/01/09 10:38:10;;;;;;;7.90;5.50;;;-2.50;99.90;;;;;;5026709;28;20134;-79
2024/01/09 10:40:36;;;;;;;6.30;4.43;;;-2.40;99.90;;;;;;5027371;28;20111;-79
2024/01/09 10:43:03;;;;;;;7.07;4.57;;;-2.30;99.90;;;;;;5026975;28;20577;-78
2024/01/09 10:45:30;;;;;;;8.27;5.13;;;-2.30;99.90;;;;;;5026050;28;20277;-78
2024/01/09 10:47:58;;;;;;;6.57;4.50;;;-2.40;99.90;;;;;;5026039;28;20419;-78
2024/01/09 10:50:25;;;;;;;7.80;5.23;;;-2.20;99.90;;;;;;5027852;28;20280;-87
2024/01/09 10:52:51;;;;;;;8.23;5.43;;;-2.30;99.90;;;;;;5028878;28;20287;-80
2024/01/09 10:55:18;;;;;;;6.80;4.93;;;-2.20;99.90;;;;;;5026967;28;20280;-80
2024/01/09 10:57:46;;;;;;;6.63;4.70;;;-2.10;99.90;;;;;;5025364;28;20380;-79
2024/01/09 11:00:12;;;;;;;7.73;5.10;;;-2.00;99.90;;;;;;5025881;28;20303;-80
2024/01/09 11:02:41;;;;;;;7.80;5.00;;;-2.00;99.90;;;;;;5026940;28;20284;-80
2024/01/09 11:05:10;;;;;;;8.10;5.10;;;-2.10;99.90;;;;;;5026168;28;20288;-79
2024/01/09 11:07:37;;;;;;;7.27;5.23;;;-2.00;99.90;;;;;;5024550;28;20284;-80
2024/01/09 11:10:04;;;;;;;6.83;5.00;;;-2.00;99.90;;;;;;5025026;28;21333;-79
2024/01/09 11:12:39;;;;;;;7.20;4.77;;;-1.90;99.90;;;;;;5025238;28;20288;-80
2024/01/09 11:15:22;;;;;;;7.07;4.80;;;-1.90;99.90;;;;;;5027226;28;20287;-80
2024/01/09 11:17:53;;;;;;;7.53;5.20;;;-1.80;99.90;;;;;;5026529;28;20292;-79
2024/01/09 11:20:19;;;;;;;8.82;4.80;;;-1.80;99.90;;;;;;5026098;28;20300;-77
2024/01/09 11:22:45;;;;;;;7.97;4.80;;;-1.70;99.90;;;;;;5028145;28;20056;-80
2024/01/09 11:25:18;;;;;;;6.70;4.40;;;-1.70;99.90;;;;;;5027718;28;20072;-81
2024/01/09 11:27:47;;;;;;;8.33;5.23;;;-1.60;99.90;;;;;;5026632;28;20292;-82
2024/01/09 11:30:16;;;;;;;9.83;4.77;;;-1.50;99.90;;;;;;5023621;28;20393;-82
2024/01/09 11:32:42;;;;;;;7.80;4.93;;;-1.60;99.90;;;;;;5024362;28;20776;-80
2024/01/09 11:35:14;;;;;;;7.10;4.67;;;-1.60;99.90;;;;;;5026975;28;20277;-80
2024/01/09 11:37:46;;;;;;;6.78;4.63;;;-1.50;99.90;;;;;;5024926;28;20053;-80
2024/01/09 11:40:13;;;;;;;6.05;4.10;;;-1.40;99.90;;;;;;5025540;28;20057;-80
2024/01/09 11:42:46;;;;;;;4.97;3.97;;;-1.40;99.90;;;;;;5025280;28;20049;-81
2024/01/09 11:45:18;;;;;;;7.10;4.20;;;-1.30;99.90;;;;;;5026716;28;20280;-80
2024/01/09 11:47:44;;;;;;;;;;;-1.30;99.90;;;;;;5026524;28;20289;-81
2024/01/09 11:50:11;;;;;;;7.87;4.70;;;-1.20;99.90;;;;;;5024270;28;19929;-81
2024/01/09 11:52:39;;;;;;;7.60;4.53;;;-1.20;99.90;;;;;;5024904;28;20566;-81
2024/01/09 11:55:09;;;;;;;7.90;4.67;;;-1.20;99.90;;;;;;5025896;28;20291;-81
2024/01/09 11:57:36;;;;;;;5.30;4.23;;;-1.20;99.90;;;;;;5009133;28;20296;-81
2024/01/09 12:00:04;;;;;;;6.17;4.30;;;-1.00;99.90;;;;;;5023626;28;20336;-81
2024/01/09 12:02:30;;;;;;;5.27;4.13;;;-1.00;99.90;;;;;;5024968;28;20379;-81
2024/01/09 12:04:55;;;;;;;6.67;4.60;;;-1.00;99.90;;;;;;5026262;28;20311;-80
2024/01/09 12:07:21;;;;;;;5.37;4.17;;;-1.00;99.90;;;;;;5023477;28;20053;-80
2024/01/09 12:09:49;;;;;;;6.73;4.33;;;-0.90;99.90;;;;;;5026595;28;20044;-80
2024/01/09 12:12:24;;;;;;;5.70;3.47;;;-0.90;99.90;;;;;;5052203;28;20045;-79
2024/01/09 12:14:54;;;;;;;5.00;3.63;;;-0.80;99.90;;;;;;5045349;28;20356;-79
2024/01/09 12:17:24;;;;;;;6.63;4.30;;;-0.80;99.90;;;;;;5041560;28;20276;-80
2024/01/09 12:19:55;;;;;;;6.83;3.77;;;-0.70;99.90;;;;;;5043679;28;20320;-80
2024/01/09 12:22:22;;;;;;;7.32;4.10;;;-0.70;99.90;;;;;;5043720;28;20343;-81
2024/01/09 12:24:52;;;;;;;7.23;4.10;;;-0.70;99.90;;;;;;5043515;28;20053;-81
2024/01/09 12:27:20;;;;;;;4.13;3.63;;;-0.70;99.90;;;;;;5044719;28;20283;-81
2024/01/09 12:29:46;;;;;;;6.27;3.33;;;-0.60;99.90;;;;;;5022290;28;20290;-81
2024/01/09 12:32:14;;;;;;;5.07;3.47;;;-0.70;99.90;;;;;;5045157;28;20296;-81
2024/01/09 12:34:40;;;;;;;5.83;3.90;;;-0.60;99.90;;;;;;5031569;28;20267;-81
2024/01/09 12:37:09;;;;;;;11.53;5.07;;;-0.60;99.90;;;;;;5029006;28;20049;-80
2024/01/09 12:39:35;;;;;;;35.47;13.73;;;-0.50;99.90;;;;;;5039564;28;20115;-80
2024/01/09 12:42:13;;;;;;;5.20;3.90;;;-0.40;99.90;;;;;;5044006;28;20289;-81